sensor_id;sensor_type;location;lat;lon;timestamp;temperature;humidity
79760;DHT22;70512;42.122;24.732;2024-03-08T00:01:47;8.20;93.80
79760;DHT22;70512;42.122;24.732;2024-03-08T00:04:14;8.20;93.70
79760;DHT22;70512;42.122;24.732;2024-03-08T00:06:42;8.30;93.60
79760;DHT22;70512;42.122;24.732;2024-03-08T00:09:12;8.40;93.50
79760;DHT22;70512;42.122;24.732;2024-03-08T00:11:40;8.40;93.30
79760;DHT22;70512;42.122;24.732;2024-03-08T00:14:07;8.40;93.10
79760;DHT22;70512;42.122;24.732;2024-03-08T00:16:35;8.30;93.00
79760;DHT22;70512;42.122;24.732;2024-03-08T00:19:03;8.30;93.20
79760;DHT22;70512;42.122;24.732;2024-03-08T00:21:31;8.40;93.10
79760;DHT22;70512;42.122;24.732;2024-03-08T00:23:59;8.40;92.90
79760;DHT22;70512;42.122;24.732;2024-03-08T00:26:26;8.40;92.90
79760;DHT22;70512;42.122;24.732;2024-03-08T00:28:56;8.40;92.70
79760;DHT22;70512;42.122;24.732;2024-03-08T00:31:23;8.40;92.70
79760;DHT22;70512;42.122;24.732;2024-03-08T00:33:51;8.50;92.80
79760;DHT22;70512;42.122;24.732;2024-03-08T00:36:19;8.60;92.80
79760;DHT22;70512;42.122;24.732;2024-03-08T00:38:47;8.60;92.50
79760;DHT22;70512;42.122;24.732;2024-03-08T00:41:14;8.60;92.30
79760;DHT22;70512;42.122;24.732;2024-03-08T00:43:42;8.60;92.20
79760;DHT22;70512;42.122;24.732;2024-03-08T00:46:10;8.50;92.20
79760;DHT22;70512;42.122;24.732;2024-03-08T00:48:38;8.50;92.20
79760;DHT22;70512;42.122;24.732;2024-03-08T00:51:08;8.60;92.40
79760;DHT22;70512;42.122;24.732;2024-03-08T00:53:35;8.50;92.20
79760;DHT22;70512;42.122;24.732;2024-03-08T00:56:03;8.40;92.30
79760;DHT22;70512;42.122;24.732;2024-03-08T00:58:31;8.30;92.30
79760;DHT22;70512;42.122;24.732;2024-03-08T01:00:59;8.30;92.40
79760;DHT22;70512;42.122;24.732;2024-03-08T01:03:27;8.30;92.40
79760;DHT22;70512;42.122;24.732;2024-03-08T01:05:55;8.30;92.40
79760;DHT22;70512;42.122;24.732;2024-03-08T01:08:22;8.20;92.70
79760;DHT22;70512;42.122;24.732;2024-03-08T01:10:50;8.20;92.80
79760;DHT22;70512;42.122;24.732;2024-03-08T01:13:18;8.30;92.80
79760;DHT22;70512;42.122;24.732;2024-03-08T01:15:46;8.30;92.70
79760;DHT22;70512;42.122;24.732;2024-03-08T01:18:13;8.20;92.70
79760;DHT22;70512;42.122;24.732;2024-03-08T01:20:41;8.30;92.70
79760;DHT22;70512;42.122;24.732;2024-03-08T01:23:08;8.20;92.80
79760;DHT22;70512;42.122;24.732;2024-03-08T01:25:36;8.20;92.70
79760;DHT22;70512;42.122;24.732;2024-03-08T01:28:04;8.20;92.70
79760;DHT22;70512;42.122;24.732;2024-03-08T01:30:32;8.20;92.80
79760;DHT22;70512;42.122;24.732;2024-03-08T01:33:01;8.20;92.90
79760;DHT22;70512;42.122;24.732;2024-03-08T01:35:29;8.10;92.80
79760;DHT22;70512;42.122;24.732;2024-03-08T01:37:57;8.10;92.90
79760;DHT22;70512;42.122;24.732;2024-03-08T01:40:25;8.10;93.00
79760;DHT22;70512;42.122;24.732;2024-03-08T01:42:52;8.30;92.90
79760;DHT22;70512;42.122;24.732;2024-03-08T01:45:20;8.40;92.90
79760;DHT22;70512;42.122;24.732;2024-03-08T01:47:48;8.40;92.80
79760;DHT22;70512;42.122;24.732;2024-03-08T01:50:16;8.40;92.60
79760;DHT22;70512;42.122;24.732;2024-03-08T01:52:43;8.50;92.60
79760;DHT22;70512;42.122;24.732;2024-03-08T01:55:12;8.40;92.60
79760;DHT22;70512;42.122;24.732;2024-03-08T01:57:41;8.30;92.90
79760;DHT22;70512;42.122;24.732;2024-03-08T02:00:09;8.30;92.80
79760;DHT22;70512;42.122;24.732;2024-03-08T02:02:38;8.20;92.90
79760;DHT22;70512;42.122;24.732;2024-03-08T02:05:06;8.10;92.90
79760;DHT22;70512;42.122;24.732;2024-03-08T02:07:35;8.10;93.00
79760;DHT22;70512;42.122;24.732;2024-03-08T02:10:03;8.00;93.20
79760;DHT22;70512;42.122;24.732;2024-03-08T02:12:30;8.00;93.20
79760;DHT22;70512;42.122;24.732;2024-03-08T02:14:58;8.00;93.20
79760;DHT22;70512;42.122;24.732;2024-03-08T02:17:26;8.00;93.30
79760;DHT22;70512;42.122;24.732;2024-03-08T02:19:54;7.90;93.40
79760;DHT22;70512;42.122;24.732;2024-03-08T02:22:22;7.80;93.40
79760;DHT22;70512;42.122;24.732;2024-03-08T02:24:50;7.80;93.70
79760;DHT22;70512;42.122;24.732;2024-03-08T02:27:25;7.80;93.70
79760;DHT22;70512;42.122;24.732;2024-03-08T02:29:54;7.80;93.90
79760;DHT22;70512;42.122;24.732;2024-03-08T02:32:26;7.80;93.90
79760;DHT22;70512;42.122;24.732;2024-03-08T02:34:58;8.00;93.80
79760;DHT22;70512;42.122;24.732;2024-03-08T02:37:28;7.90;93.60
79760;DHT22;70512;42.122;24.732;2024-03-08T02:39:56;7.80;94.10
79760;DHT22;70512;42.122;24.732;2024-03-08T02:42:24;7.80;93.80
79760;DHT22;70512;42.122;24.732;2024-03-08T02:44:51;7.90;93.80
79760;DHT22;70512;42.122;24.732;2024-03-08T02:47:20;7.90;93.70
79760;DHT22;70512;42.122;24.732;2024-03-08T02:49:52;7.90;93.70
79760;DHT22;70512;42.122;24.732;2024-03-08T02:52:20;7.90;93.50
79760;DHT22;70512;42.122;24.732;2024-03-08T02:54:48;8.00;93.60
79760;DHT22;70512;42.122;24.732;2024-03-08T02:57:16;8.00;93.70
79760;DHT22;70512;42.122;24.732;2024-03-08T02:59:44;8.00;93.50
79760;DHT22;70512;42.122;24.732;2024-03-08T03:02:12;8.00;93.50
79760;DHT22;70512;42.122;24.732;2024-03-08T03:04:41;7.90;93.70
79760;DHT22;70512;42.122;24.732;2024-03-08T03:07:08;7.70;94.00
79760;DHT22;70512;42.122;24.732;2024-03-08T03:09:36;7.70;94.20
79760;DHT22;70512;42.122;24.732;2024-03-08T03:12:04;7.70;94.30
79760;DHT22;70512;42.122;24.732;2024-03-08T03:14:33;7.70;94.50
79760;DHT22;70512;42.122;24.732;2024-03-08T03:17:04;7.60;94.80
79760;DHT22;70512;42.122;24.732;2024-03-08T03:19:32;7.50;95.00
79760;DHT22;70512;42.122;24.732;2024-03-08T03:22:01;7.50;95.40
79760;DHT22;70512;42.122;24.732;2024-03-08T03:24:29;7.50;95.50
79760;DHT22;70512;42.122;24.732;2024-03-08T03:26:59;7.50;95.60
79760;DHT22;70512;42.122;24.732;2024-03-08T03:29:26;7.40;96.10
79760;DHT22;70512;42.122;24.732;2024-03-08T03:31:54;7.40;95.70
79760;DHT22;70512;42.122;24.732;2024-03-08T03:34:22;7.40;96.20
79760;DHT22;70512;42.122;24.732;2024-03-08T03:36:51;7.30;96.30
79760;DHT22;70512;42.122;24.732;2024-03-08T03:39:18;7.30;96.40
79760;DHT22;70512;42.122;24.732;2024-03-08T03:41:48;7.30;96.60
79760;DHT22;70512;42.122;24.732;2024-03-08T03:44:17;7.30;96.70
79760;DHT22;70512;42.122;24.732;2024-03-08T03:46:45;7.30;96.80
79760;DHT22;70512;42.122;24.732;2024-03-08T03:49:13;7.30;96.80
79760;DHT22;70512;42.122;24.732;2024-03-08T03:51:40;7.40;96.80
79760;DHT22;70512;42.122;24.732;2024-03-08T03:54:08;7.40;96.60
79760;DHT22;70512;42.122;24.732;2024-03-08T03:56:36;7.40;96.70
79760;DHT22;70512;42.122;24.732;2024-03-08T03:59:04;7.30;96.70
79760;DHT22;70512;42.122;24.732;2024-03-08T04:01:32;7.30;97.00
79760;DHT22;70512;42.122;24.732;2024-03-08T04:03:59;7.30;97.10
79760;DHT22;70512;42.122;24.732;2024-03-08T04:06:27;7.30;97.20
79760;DHT22;70512;42.122;24.732;2024-03-08T04:08:55;7.30;97.30
79760;DHT22;70512;42.122;24.732;2024-03-08T04:11:23;7.20;97.30
79760;DHT22;70512;42.122;24.732;2024-03-08T04:13:50;7.20;97.50
79760;DHT22;70512;42.122;24.732;2024-03-08T04:16:19;7.20;97.40
79760;DHT22;70512;42.122;24.732;2024-03-08T04:18:46;7.10;97.40
79760;DHT22;70512;42.122;24.732;2024-03-08T04:21:14;7.10;97.70
79760;DHT22;70512;42.122;24.732;2024-03-08T04:23:42;7.00;97.80
79760;DHT22;70512;42.122;24.732;2024-03-08T04:26:11;6.90;97.70
79760;DHT22;70512;42.122;24.732;2024-03-08T04:28:39;6.90;97.90
79760;DHT22;70512;42.122;24.732;2024-03-08T04:31:08;7.00;98.10
79760;DHT22;70512;42.122;24.732;2024-03-08T04:33:37;7.00;98.10
79760;DHT22;70512;42.122;24.732;2024-03-08T04:36:05;7.00;97.70
79760;DHT22;70512;42.122;24.732;2024-03-08T04:38:34;7.00;97.70
79760;DHT22;70512;42.122;24.732;2024-03-08T04:41:02;7.00;97.50
79760;DHT22;70512;42.122;24.732;2024-03-08T04:43:30;7.00;97.50
79760;DHT22;70512;42.122;24.732;2024-03-08T04:45:58;7.00;97.30
79760;DHT22;70512;42.122;24.732;2024-03-08T04:48:25;6.90;97.30
79760;DHT22;70512;42.122;24.732;2024-03-08T04:50:56;6.80;97.50
79760;DHT22;70512;42.122;24.732;2024-03-08T04:53:23;6.80;97.40
79760;DHT22;70512;42.122;24.732;2024-03-08T04:55:51;6.80;97.70
79760;DHT22;70512;42.122;24.732;2024-03-08T04:58:20;6.80;97.80
79760;DHT22;70512;42.122;24.732;2024-03-08T05:00:48;6.80;97.70
79760;DHT22;70512;42.122;24.732;2024-03-08T05:03:15;6.70;97.80
79760;DHT22;70512;42.122;24.732;2024-03-08T05:05:43;6.70;97.80
79760;DHT22;70512;42.122;24.732;2024-03-08T05:08:10;6.80;97.80
79760;DHT22;70512;42.122;24.732;2024-03-08T05:10:38;6.80;97.70
79760;DHT22;70512;42.122;24.732;2024-03-08T05:13:06;6.60;97.40
79760;DHT22;70512;42.122;24.732;2024-03-08T05:15:34;6.50;97.90
79760;DHT22;70512;42.122;24.732;2024-03-08T05:18:01;6.60;98.00
79760;DHT22;70512;42.122;24.732;2024-03-08T05:20:29;6.50;98.00
79760;DHT22;70512;42.122;24.732;2024-03-08T05:22:57;6.50;98.00
79760;DHT22;70512;42.122;24.732;2024-03-08T05:25:28;6.50;98.00
79760;DHT22;70512;42.122;24.732;2024-03-08T05:27:55;6.50;98.60
79760;DHT22;70512;42.122;24.732;2024-03-08T05:30:24;6.60;98.40
79760;DHT22;70512;42.122;24.732;2024-03-08T05:32:52;6.60;98.60
79760;DHT22;70512;42.122;24.732;2024-03-08T05:35:20;6.70;98.50
79760;DHT22;70512;42.122;24.732;2024-03-08T05:37:49;6.80;98.40
79760;DHT22;70512;42.122;24.732;2024-03-08T05:40:16;6.90;98.40
79760;DHT22;70512;42.122;24.732;2024-03-08T05:42:44;6.90;97.50
79760;DHT22;70512;42.122;24.732;2024-03-08T05:45:13;6.80;97.70
79760;DHT22;70512;42.122;24.732;2024-03-08T05:47:41;6.90;97.60
79760;DHT22;70512;42.122;24.732;2024-03-08T05:50:10;6.90;97.40
79760;DHT22;70512;42.122;24.732;2024-03-08T05:52:38;6.80;97.20
79760;DHT22;70512;42.122;24.732;2024-03-08T05:55:06;6.70;97.30
79760;DHT22;70512;42.122;24.732;2024-03-08T05:57:34;6.80;97.30
79760;DHT22;70512;42.122;24.732;2024-03-08T06:00:04;6.80;97.30
79760;DHT22;70512;42.122;24.732;2024-03-08T06:02:32;6.80;97.40
79760;DHT22;70512;42.122;24.732;2024-03-08T06:04:59;6.90;97.80
79760;DHT22;70512;42.122;24.732;2024-03-08T06:07:28;7.10;97.60
79760;DHT22;70512;42.122;24.732;2024-03-08T06:09:56;7.10;97.00
79760;DHT22;70512;42.122;24.732;2024-03-08T06:12:24;7.30;97.20
79760;DHT22;70512;42.122;24.732;2024-03-08T06:14:53;7.40;96.80
79760;DHT22;70512;42.122;24.732;2024-03-08T06:17:21;7.40;96.50
79760;DHT22;70512;42.122;24.732;2024-03-08T06:19:50;7.40;96.40
79760;DHT22;70512;42.122;24.732;2024-03-08T06:22:19;7.40;96.80
79760;DHT22;70512;42.122;24.732;2024-03-08T06:24:46;7.50;96.60
79760;DHT22;70512;42.122;24.732;2024-03-08T06:27:14;7.70;96.40
79760;DHT22;70512;42.122;24.732;2024-03-08T06:29:42;7.80;95.80
79760;DHT22;70512;42.122;24.732;2024-03-08T06:32:09;7.70;95.30
79760;DHT22;70512;42.122;24.732;2024-03-08T06:34:37;7.70;95.40
79760;DHT22;70512;42.122;24.732;2024-03-08T06:37:05;7.80;95.10
79760;DHT22;70512;42.122;24.732;2024-03-08T06:39:32;7.80;95.30
79760;DHT22;70512;42.122;24.732;2024-03-08T06:42:02;7.70;95.00
79760;DHT22;70512;42.122;24.732;2024-03-08T06:44:31;7.60;95.00
79760;DHT22;70512;42.122;24.732;2024-03-08T06:46:59;7.60;95.30
79760;DHT22;70512;42.122;24.732;2024-03-08T06:49:27;7.60;95.10
79760;DHT22;70512;42.122;24.732;2024-03-08T06:51:54;7.60;95.20
79760;DHT22;70512;42.122;24.732;2024-03-08T06:54:23;7.70;95.40
79760;DHT22;70512;42.122;24.732;2024-03-08T06:56:51;7.70;95.40
79760;DHT22;70512;42.122;24.732;2024-03-08T06:59:19;7.60;95.20
79760;DHT22;70512;42.122;24.732;2024-03-08T07:01:47;7.80;95.30
79760;DHT22;70512;42.122;24.732;2024-03-08T07:04:15;7.90;95.10
79760;DHT22;70512;42.122;24.732;2024-03-08T07:06:42;8.00;95.00
79760;DHT22;70512;42.122;24.732;2024-03-08T07:09:13;7.90;94.80
79760;DHT22;70512;42.122;24.732;2024-03-08T07:11:43;7.80;94.60
79760;DHT22;70512;42.122;24.732;2024-03-08T07:14:11;7.80;95.10
79760;DHT22;70512;42.122;24.732;2024-03-08T07:16:38;7.90;95.50
79760;DHT22;70512;42.122;24.732;2024-03-08T07:19:08;7.80;94.80
79760;DHT22;70512;42.122;24.732;2024-03-08T07:21:35;7.90;95.00
79760;DHT22;70512;42.122;24.732;2024-03-08T07:24:03;7.90;95.00
79760;DHT22;70512;42.122;24.732;2024-03-08T07:26:32;8.00;94.90
79760;DHT22;70512;42.122;24.732;2024-03-08T07:29:00;8.00;94.50
79760;DHT22;70512;42.122;24.732;2024-03-08T07:31:28;7.90;94.70
79760;DHT22;70512;42.122;24.732;2024-03-08T07:34:00;7.80;94.70
79760;DHT22;70512;42.122;24.732;2024-03-08T07:36:29;7.80;94.70
79760;DHT22;70512;42.122;24.732;2024-03-08T07:38:57;7.80;94.70
79760;DHT22;70512;42.122;24.732;2024-03-08T07:41:25;7.80;94.70
79760;DHT22;70512;42.122;24.732;2024-03-08T07:43:53;8.00;94.80
79760;DHT22;70512;42.122;24.732;2024-03-08T07:46:20;8.10;94.40
79760;DHT22;70512;42.122;24.732;2024-03-08T07:48:49;8.10;93.60
79760;DHT22;70512;42.122;24.732;2024-03-08T07:51:18;8.10;93.50
79760;DHT22;70512;42.122;24.732;2024-03-08T07:53:46;8.20;93.40
79760;DHT22;70512;42.122;24.732;2024-03-08T07:56:13;8.20;93.10
79760;DHT22;70512;42.122;24.732;2024-03-08T07:58:43;8.20;93.20
79760;DHT22;70512;42.122;24.732;2024-03-08T08:01:19;8.40;93.30
79760;DHT22;70512;42.122;24.732;2024-03-08T08:03:47;8.50;92.70
79760;DHT22;70512;42.122;24.732;2024-03-08T08:06:17;8.50;92.60
79760;DHT22;70512;42.122;24.732;2024-03-08T08:08:46;8.50;92.50
79760;DHT22;70512;42.122;24.732;2024-03-08T08:11:13;8.60;92.60
79760;DHT22;70512;42.122;24.732;2024-03-08T08:13:42;8.70;92.30
79760;DHT22;70512;42.122;24.732;2024-03-08T08:16:10;8.80;92.50
79760;DHT22;70512;42.122;24.732;2024-03-08T08:18:39;8.80;91.80
79760;DHT22;70512;42.122;24.732;2024-03-08T08:21:07;8.80;91.60
79760;DHT22;70512;42.122;24.732;2024-03-08T08:23:35;8.80;91.80
79760;DHT22;70512;42.122;24.732;2024-03-08T08:26:02;8.80;91.60
79760;DHT22;70512;42.122;24.732;2024-03-08T08:28:31;8.90;91.10
79760;DHT22;70512;42.122;24.732;2024-03-08T08:30:59;8.90;91.10
79760;DHT22;70512;42.122;24.732;2024-03-08T08:33:26;8.90;91.10
79760;DHT22;70512;42.122;24.732;2024-03-08T08:35:54;9.10;91.30
79760;DHT22;70512;42.122;24.732;2024-03-08T08:38:22;9.30;91.00
79760;DHT22;70512;42.122;24.732;2024-03-08T08:40:51;9.50;90.50
79760;DHT22;70512;42.122;24.732;2024-03-08T08:43:19;9.40;89.40
79760;DHT22;70512;42.122;24.732;2024-03-08T08:45:48;9.60;89.40
79760;DHT22;70512;42.122;24.732;2024-03-08T08:48:17;9.40;89.80
79760;DHT22;70512;42.122;24.732;2024-03-08T08:50:45;9.70;89.90
79760;DHT22;70512;42.122;24.732;2024-03-08T08:53:13;9.90;89.20
79760;DHT22;70512;42.122;24.732;2024-03-08T08:55:41;9.90;87.90
79760;DHT22;70512;42.122;24.732;2024-03-08T08:58:09;10.00;87.80
79760;DHT22;70512;42.122;24.732;2024-03-08T09:00:37;10.10;88.30
79760;DHT22;70512;42.122;24.732;2024-03-08T09:03:05;10.20;87.00
79760;DHT22;70512;42.122;24.732;2024-03-08T09:05:37;10.10;86.10
79760;DHT22;70512;42.122;24.732;2024-03-08T09:08:06;10.00;86.50
79760;DHT22;70512;42.122;24.732;2024-03-08T09:10:35;9.90;87.70
79760;DHT22;70512;42.122;24.732;2024-03-08T09:13:02;10.00;87.40
79760;DHT22;70512;42.122;24.732;2024-03-08T09:15:30;10.20;86.60
79760;DHT22;70512;42.122;24.732;2024-03-08T09:17:58;10.50;84.70
79760;DHT22;70512;42.122;24.732;2024-03-08T09:20:28;10.80;84.40
79760;DHT22;70512;42.122;24.732;2024-03-08T09:22:58;11.10;82.20
79760;DHT22;70512;42.122;24.732;2024-03-08T09:25:25;11.30;80.80
79760;DHT22;70512;42.122;24.732;2024-03-08T09:27:53;11.50;80.40
79760;DHT22;70512;42.122;24.732;2024-03-08T09:30:21;11.80;79.20
79760;DHT22;70512;42.122;24.732;2024-03-08T09:32:49;11.80;78.40
79760;DHT22;70512;42.122;24.732;2024-03-08T09:35:17;11.70;78.40
79760;DHT22;70512;42.122;24.732;2024-03-08T09:37:45;11.40;77.90
79760;DHT22;70512;42.122;24.732;2024-03-08T09:40:17;11.10;79.40
79760;DHT22;70512;42.122;24.732;2024-03-08T09:42:49;11.00;81.30
79760;DHT22;70512;42.122;24.732;2024-03-08T09:45:17;11.10;81.30
79760;DHT22;70512;42.122;24.732;2024-03-08T09:47:46;11.10;81.20
79760;DHT22;70512;42.122;24.732;2024-03-08T09:50:15;11.10;80.70
79760;DHT22;70512;42.122;24.732;2024-03-08T09:52:49;10.90;80.00
79760;DHT22;70512;42.122;24.732;2024-03-08T09:55:17;10.70;81.10
79760;DHT22;70512;42.122;24.732;2024-03-08T09:57:47;10.50;82.90
79760;DHT22;70512;42.122;24.732;2024-03-08T10:00:17;10.50;82.80
79760;DHT22;70512;42.122;24.732;2024-03-08T10:02:50;10.70;82.70
79760;DHT22;70512;42.122;24.732;2024-03-08T10:05:21;10.90;81.70
79760;DHT22;70512;42.122;24.732;2024-03-08T10:07:49;10.90;80.10
79760;DHT22;70512;42.122;24.732;2024-03-08T10:10:17;10.90;81.00
79760;DHT22;70512;42.122;24.732;2024-03-08T10:12:46;11.00;81.70
79760;DHT22;70512;42.122;24.732;2024-03-08T10:15:15;11.10;81.20
79760;DHT22;70512;42.122;24.732;2024-03-08T10:17:46;11.20;80.10
79760;DHT22;70512;42.122;24.732;2024-03-08T10:20:18;11.30;79.00
79760;DHT22;70512;42.122;24.732;2024-03-08T10:22:45;11.40;79.00
79760;DHT22;70512;42.122;24.732;2024-03-08T10:25:13;11.40;78.30
79760;DHT22;70512;42.122;24.732;2024-03-08T10:27:41;11.60;77.50
79760;DHT22;70512;42.122;24.732;2024-03-08T10:30:12;11.70;78.20
79760;DHT22;70512;42.122;24.732;2024-03-08T10:32:40;11.70;77.00
79760;DHT22;70512;42.122;24.732;2024-03-08T10:35:08;11.90;77.60
79760;DHT22;70512;42.122;24.732;2024-03-08T10:37:49;11.90;76.70
79760;DHT22;70512;42.122;24.732;2024-03-08T10:40:10;12.00;75.40
79760;DHT22;70512;42.122;24.732;2024-03-08T10:42:51;11.80;75.70
79760;DHT22;70512;42.122;24.732;2024-03-08T10:45:15;11.90;75.50
79760;DHT22;70512;42.122;24.732;2024-03-08T10:47:46;12.00;74.70
79760;DHT22;70512;42.122;24.732;2024-03-08T10:50:20;12.10;74.80
79760;DHT22;70512;42.122;24.732;2024-03-08T10:52:50;12.00;74.30
79760;DHT22;70512;42.122;24.732;2024-03-08T10:55:19;12.50;73.90
79760;DHT22;70512;42.122;24.732;2024-03-08T10:57:47;12.90;72.10
79760;DHT22;70512;42.122;24.732;2024-03-08T11:00:15;13.10;70.40
79760;DHT22;70512;42.122;24.732;2024-03-08T11:02:46;13.20;69.00
79760;DHT22;70512;42.122;24.732;2024-03-08T11:05:39;13.00;69.80
79760;DHT22;70512;42.122;24.732;2024-03-08T11:08:18;13.60;69.70
79760;DHT22;70512;42.122;24.732;2024-03-08T11:10:53;13.90;68.50
79760;DHT22;70512;42.122;24.732;2024-03-08T11:13:32;14.40;67.60
79760;DHT22;70512;42.122;24.732;2024-03-08T11:16:08;14.70;65.00
79760;DHT22;70512;42.122;24.732;2024-03-08T11:18:37;15.30;63.00
79760;DHT22;70512;42.122;24.732;2024-03-08T11:21:08;15.80;61.00
79760;DHT22;70512;42.122;24.732;2024-03-08T11:23:37;16.10;59.30
79760;DHT22;70512;42.122;24.732;2024-03-08T11:26:19;16.80;58.00
79760;DHT22;70512;42.122;24.732;2024-03-08T11:28:47;16.90;56.80
79760;DHT22;70512;42.122;24.732;2024-03-08T11:31:28;17.00;56.20
79760;DHT22;70512;42.122;24.732;2024-03-08T11:34:02;16.30;56.60
79760;DHT22;70512;42.122;24.732;2024-03-08T11:36:30;16.30;56.80
79760;DHT22;70512;42.122;24.732;2024-03-08T11:39:01;15.60;59.10
79760;DHT22;70512;42.122;24.732;2024-03-08T11:41:31;15.50;59.60
79760;DHT22;70512;42.122;24.732;2024-03-08T11:44:05;15.10;61.10
79760;DHT22;70512;42.122;24.732;2024-03-08T11:46:34;15.30;60.40
79760;DHT22;70512;42.122;24.732;2024-03-08T11:49:03;15.80;59.70
79760;DHT22;70512;42.122;24.732;2024-03-08T11:51:32;16.30;58.80
79760;DHT22;70512;42.122;24.732;2024-03-08T11:54:00;16.80;56.60
79760;DHT22;70512;42.122;24.732;2024-03-08T11:56:32;16.90;56.60
79760;DHT22;70512;42.122;24.732;2024-03-08T11:58:58;19.80;51.90
79760;DHT22;70512;42.122;24.732;2024-03-08T12:01:27;23.90;43.30
79760;DHT22;70512;42.122;24.732;2024-03-08T12:03:56;27.20;33.40
79760;DHT22;70512;42.122;24.732;2024-03-08T12:06:35;28.30;29.80
79760;DHT22;70512;42.122;24.732;2024-03-08T12:08:57;28.80;28.70
79760;DHT22;70512;42.122;24.732;2024-03-08T12:11:24;28.50;27.70
79760;DHT22;70512;42.122;24.732;2024-03-08T12:13:52;27.60;28.60
79760;DHT22;70512;42.122;24.732;2024-03-08T12:16:20;25.30;31.40
79760;DHT22;70512;42.122;24.732;2024-03-08T12:18:48;23.30;34.90
79760;DHT22;70512;42.122;24.732;2024-03-08T12:21:16;21.80;38.20
79760;DHT22;70512;42.122;24.732;2024-03-08T12:23:45;20.60;40.40
79760;DHT22;70512;42.122;24.732;2024-03-08T12:26:25;20.70;41.70
79760;DHT22;70512;42.122;24.732;2024-03-08T12:28:53;23.70;36.40
79760;DHT22;70512;42.122;24.732;2024-03-08T12:31:21;25.90;33.20
79760;DHT22;70512;42.122;24.732;2024-03-08T12:33:54;23.40;35.10
79760;DHT22;70512;42.122;24.732;2024-03-08T12:36:23;20.50;41.40
79760;DHT22;70512;42.122;24.732;2024-03-08T12:38:53;18.50;46.20
79760;DHT22;70512;42.122;24.732;2024-03-08T12:41:22;16.90;50.30
79760;DHT22;70512;42.122;24.732;2024-03-08T12:43:49;16.00;54.50
79760;DHT22;70512;42.122;24.732;2024-03-08T12:46:18;15.30;56.10
79760;DHT22;70512;42.122;24.732;2024-03-08T12:48:51;14.90;57.30
79760;DHT22;70512;42.122;24.732;2024-03-08T12:51:20;15.10;58.00
79760;DHT22;70512;42.122;24.732;2024-03-08T12:53:48;15.40;57.80
79760;DHT22;70512;42.122;24.732;2024-03-08T12:56:20;15.50;56.90
79760;DHT22;70512;42.122;24.732;2024-03-08T12:58:49;15.40;57.20
79760;DHT22;70512;42.122;24.732;2024-03-08T13:01:16;14.60;58.30
79760;DHT22;70512;42.122;24.732;2024-03-08T13:03:44;13.80;60.30
79760;DHT22;70512;42.122;24.732;2024-03-08T13:06:13;13.30;62.80
79760;DHT22;70512;42.122;24.732;2024-03-08T13:08:41;13.20;63.00
79760;DHT22;70512;42.122;24.732;2024-03-08T13:11:11;13.30;64.60
79760;DHT22;70512;42.122;24.732;2024-03-08T13:13:38;13.20;63.50
79760;DHT22;70512;42.122;24.732;2024-03-08T13:16:07;13.10;63.90
79760;DHT22;70512;42.122;24.732;2024-03-08T13:18:35;13.00;64.80
79760;DHT22;70512;42.122;24.732;2024-03-08T13:21:04;13.30;64.10
79760;DHT22;70512;42.122;24.732;2024-03-08T13:23:34;13.50;63.40
79760;DHT22;70512;42.122;24.732;2024-03-08T13:26:08;15.70;58.30
79760;DHT22;70512;42.122;24.732;2024-03-08T13:28:38;17.50;53.00
79760;DHT22;70512;42.122;24.732;2024-03-08T13:31:06;20.30;47.40
79760;DHT22;70512;42.122;24.732;2024-03-08T13:33:36;22.20;39.90
79760;DHT22;70512;42.122;24.732;2024-03-08T13:36:07;24.30;36.20
79760;DHT22;70512;42.122;24.732;2024-03-08T13:38:36;25.50;31.50
79760;DHT22;70512;42.122;24.732;2024-03-08T13:41:05;25.40;31.80
79760;DHT22;70512;42.122;24.732;2024-03-08T13:43:32;25.60;30.70
79760;DHT22;70512;42.122;24.732;2024-03-08T13:46:02;26.20;30.60
79760;DHT22;70512;42.122;24.732;2024-03-08T13:48:31;24.90;31.20
79760;DHT22;70512;42.122;24.732;2024-03-08T13:50:59;21.60;35.60
79760;DHT22;70512;42.122;24.732;2024-03-08T13:53:27;19.90;40.30
79760;DHT22;70512;42.122;24.732;2024-03-08T13:55:55;19.40;42.50
79760;DHT22;70512;42.122;24.732;2024-03-08T13:58:23;19.00;42.40
79760;DHT22;70512;42.122;24.732;2024-03-08T14:00:51;18.60;44.50
79760;DHT22;70512;42.122;24.732;2024-03-08T14:03:19;17.60;47.60
79760;DHT22;70512;42.122;24.732;2024-03-08T14:05:47;16.50;50.10
79760;DHT22;70512;42.122;24.732;2024-03-08T14:08:15;15.40;53.20
79760;DHT22;70512;42.122;24.732;2024-03-08T14:10:45;14.80;56.20
79760;DHT22;70512;42.122;24.732;2024-03-08T14:13:17;14.20;58.50
79760;DHT22;70512;42.122;24.732;2024-03-08T14:15:47;14.00;59.80
79760;DHT22;70512;42.122;24.732;2024-03-08T14:18:15;13.90;60.70
79760;DHT22;70512;42.122;24.732;2024-03-08T14:20:44;13.50;63.10
79760;DHT22;70512;42.122;24.732;2024-03-08T14:23:14;13.40;64.40
79760;DHT22;70512;42.122;24.732;2024-03-08T14:25:42;13.20;63.90
79760;DHT22;70512;42.122;24.732;2024-03-08T14:28:10;12.90;65.20
79760;DHT22;70512;42.122;24.732;2024-03-08T14:30:38;13.00;65.80
79760;DHT22;70512;42.122;24.732;2024-03-08T14:33:08;13.30;65.10
79760;DHT22;70512;42.122;24.732;2024-03-08T14:35:40;13.30;63.50
79760;DHT22;70512;42.122;24.732;2024-03-08T14:38:09;13.50;62.20
79760;DHT22;70512;42.122;24.732;2024-03-08T14:40:37;15.10;58.50
79760;DHT22;70512;42.122;24.732;2024-03-08T14:43:06;17.50;53.10
79760;DHT22;70512;42.122;24.732;2024-03-08T14:45:34;18.60;48.10
79760;DHT22;70512;42.122;24.732;2024-03-08T14:48:03;18.90;46.90
79760;DHT22;70512;42.122;24.732;2024-03-08T14:50:32;18.60;47.40
79760;DHT22;70512;42.122;24.732;2024-03-08T14:52:59;17.40;50.20
79760;DHT22;70512;42.122;24.732;2024-03-08T14:55:27;16.60;52.80
79760;DHT22;70512;42.122;24.732;2024-03-08T14:57:56;15.20;57.00
79760;DHT22;70512;42.122;24.732;2024-03-08T15:00:24;14.30;60.10
79760;DHT22;70512;42.122;24.732;2024-03-08T15:02:56;13.30;64.40
79760;DHT22;70512;42.122;24.732;2024-03-08T15:05:24;12.70;66.90
79760;DHT22;70512;42.122;24.732;2024-03-08T15:07:55;12.00;69.90
79760;DHT22;70512;42.122;24.732;2024-03-08T15:10:22;11.90;71.30
79760;DHT22;70512;42.122;24.732;2024-03-08T15:12:52;11.70;72.50
79760;DHT22;70512;42.122;24.732;2024-03-08T15:15:22;11.60;73.50
79760;DHT22;70512;42.122;24.732;2024-03-08T15:17:51;11.50;73.20
79760;DHT22;70512;42.122;24.732;2024-03-08T15:20:20;11.60;73.80
79760;DHT22;70512;42.122;24.732;2024-03-08T15:22:52;11.50;73.10
79760;DHT22;70512;42.122;24.732;2024-03-08T15:25:23;11.60;73.00
79760;DHT22;70512;42.122;24.732;2024-03-08T15:27:54;12.60;69.80
79760;DHT22;70512;42.122;24.732;2024-03-08T15:30:25;13.60;65.20
79760;DHT22;70512;42.122;24.732;2024-03-08T15:32:57;13.80;63.10
79760;DHT22;70512;42.122;24.732;2024-03-08T15:35:28;13.50;63.20